Time;durP1;ratioP1;P1;durP2;ratioP2;P2;SDS_P1;SDS_P2;PMS_P1;PMS_P2;Temp;Humidity;BMP_temperature;BMP_pressure;BME280_temperature;BME280_humidity;BME280_pressure;Samples;Min_cycle;Max_cycle;Signal;HPM_P1;HPM_P2
2022/05/20 00:01:14;;;;;;;0.68;0.10;;;31.60;32.90;;;;;;5117079;27;20063;-51
2022/05/20 00:03:42;;;;;;;4.28;0.13;;;31.60;33.00;;;;;;5114935;27;20046;-50
2022/05/20 00:06:09;;;;;;;2.22;0.10;;;31.60;33.00;;;;;;5121135;27;20046;-51
2022/05/20 00:08:38;;;;;;;1.95;0.10;;;31.60;33.00;;;;;;5118751;27;20624;-51
2022/05/20 00:11:05;;;;;;;1.35;0.13;;;31.50;32.90;;;;;;5120373;27;20054;-54
2022/05/20 00:13:33;;;;;;;2.58;0.10;;;31.50;33.00;;;;;;5124032;27;20054;-50
2022/05/20 00:16:02;;;;;;;0.10;0.10;;;31.40;33.00;;;;;;5121935;27;20063;-58
2022/05/20 00:18:29;;;;;;;5.13;0.30;;;31.40;33.00;;;;;;5124116;27;20596;-52
2022/05/20 00:20:59;;;;;;;1.35;0.40;;;31.40;33.00;;;;;;5117792;27;20132;-53
2022/05/20 00:23:26;;;;;;;1.27;0.10;;;31.40;33.00;;;;;;5125832;27;20578;-52
2022/05/20 00:25:53;;;;;;;0.50;0.20;;;31.40;33.00;;;;;;5123559;27;20099;-53
2022/05/20 00:28:22;;;;;;;1.42;0.10;;;31.30;32.90;;;;;;5123727;27;20050;-52
2022/05/20 00:30:50;;;;;;;1.08;0.30;;;31.30;32.80;;;;;;5124182;27;20051;-56
2022/05/20 00:33:19;;;;;;;1.15;0.10;;;31.30;32.80;;;;;;5122399;27;20130;-53
2022/05/20 00:35:46;;;;;;;0.38;0.30;;;31.20;32.60;;;;;;5125348;27;20047;-49
2022/05/20 00:38:14;;;;;;;1.33;0.47;;;31.20;32.60;;;;;;5124042;27;20045;-51
2022/05/20 00:40:42;;;;;;;0.20;0.10;;;31.20;32.60;;;;;;5122040;27;20041;-52
2022/05/20 00:43:12;;;;;;;2.05;0.10;;;31.20;32.50;;;;;;5123322;27;20108;-50
2022/05/20 00:45:39;;;;;;;0.25;0.10;;;31.20;32.50;;;;;;5123961;27;20035;-52
2022/05/20 00:48:07;;;;;;;0.55;0.10;;;31.10;32.30;;;;;;5123026;27;20087;-49
2022/05/20 00:50:38;;;;;;;0.63;0.10;;;31.10;32.20;;;;;;5125186;27;20049;-48
2022/05/20 00:53:06;;;;;;;1.10;0.10;;;31.10;32.10;;;;;;5117869;27;20104;-51
2022/05/20 00:55:33;;;;;;;0.73;0.10;;;31.10;32.00;;;;;;5097898;27;20046;-49
2022/05/20 00:58:07;;;;;;;1.10;0.47;;;31.00;31.90;;;;;;5102282;28;20043;-48
2022/05/20 01:00:38;;;;;;;0.88;0.25;;;31.00;31.90;;;;;;5103633;28;20043;-49
2022/05/20 01:03:08;;;;;;;2.58;0.10;;;31.00;31.90;;;;;;5103463;28;20039;-46
2022/05/20 01:05:40;;;;;;;2.22;0.10;;;31.00;31.90;;;;;;5119756;27;20047;-50
2022/05/20 01:08:08;;;;;;;2.50;0.20;;;30.90;31.80;;;;;;5084153;28;20598;-53
2022/05/20 01:10:36;;;;;;;1.05;0.22;;;30.90;31.80;;;;;;5107482;27;20043;-53
2022/05/20 01:13:03;;;;;;;0.73;0.10;;;30.90;31.70;;;;;;5105336;28;20044;-50
2022/05/20 01:15:31;;;;;;;0.40;0.10;;;30.90;31.80;;;;;;5117831;27;20035;-51
2022/05/20 01:17:58;;;;;;;0.40;0.10;;;30.90;31.80;;;;;;5081930;28;20104;-51
2022/05/20 01:20:28;;;;;;;1.67;0.10;;;30.90;31.90;;;;;;5105092;28;20044;-51
2022/05/20 01:23:07;;;;;;;0.10;0.00;;;30.80;31.70;;;;;;5109571;28;20047;-49
2022/05/20 01:25:34;;;;;;;1.30;0.10;;;30.80;31.70;;;;;;5112221;28;20116;-52
2022/05/20 01:28:02;;;;;;;2.25;0.30;;;30.80;31.70;;;;;;5106935;28;20160;-49
2022/05/20 01:30:31;;;;;;;0.50;0.10;;;30.80;31.80;;;;;;5112335;28;20036;-47
2022/05/20 01:33:04;;;;;;;3.40;0.32;;;30.80;31.70;;;;;;5119009;28;20043;-49
2022/05/20 01:35:36;;;;;;;0.63;0.20;;;30.80;31.70;;;;;;5107530;28;20047;-49
2022/05/20 01:38:05;;;;;;;1.88;0.25;;;30.80;31.80;;;;;;5113784;28;20484;-47
2022/05/20 01:40:40;;;;;;;2.08;0.10;;;30.70;31.70;;;;;;5112409;28;20047;-52
2022/05/20 01:43:13;;;;;;;0.20;0.10;;;30.70;31.70;;;;;;5102905;28;20127;-51
2022/05/20 01:45:47;;;;;;;2.63;0.20;;;30.70;31.50;;;;;;5103835;28;20046;-51
2022/05/20 01:48:23;;;;;;;1.95;0.10;;;30.70;31.60;;;;;;5122070;27;20063;-49
2022/05/20 01:50:54;;;;;;;0.70;0.10;;;30.70;31.60;;;;;;5089948;28;20097;-50
2022/05/20 01:53:31;;;;;;;0.82;0.10;;;30.60;31.60;;;;;;5106839;27;20043;-47
2022/05/20 01:56:04;;;;;;;1.95;0.10;;;30.60;31.70;;;;;;5106338;28;20415;-47
2022/05/20 01:58:37;;;;;;;1.90;0.20;;;30.60;31.70;;;;;;5105133;28;20048;-47
2022/05/20 02:01:09;;;;;;;0.45;0.00;;;30.60;31.70;;;;;;5106107;28;20654;-50
2022/05/20 02:03:42;;;;;;;0.95;0.20;;;30.60;31.60;;;;;;5106012;28;20240;-50
2022/05/20 02:06:13;;;;;;;3.05;0.32;;;30.60;31.60;;;;;;5105625;28;20050;-52
2022/05/20 02:08:45;;;;;;;0.30;0.10;;;30.60;31.70;;;;;;5106675;28;20519;-50
2022/05/20 02:11:16;;;;;;;0.73;0.10;;;30.60;31.70;;;;;;5105768;28;20042;-49
2022/05/20 02:13:48;;;;;;;1.67;0.20;;;30.50;31.50;;;;;;5105442;28;20050;-51
2022/05/20 02:16:20;;;;;;;0.88;0.20;;;30.50;31.70;;;;;;5105027;28;20393;-55
2022/05/20 02:18:51;;;;;;;0.30;0.15;;;30.50;31.70;;;;;;5097244;28;20450;-55
2022/05/20 02:21:22;;;;;;;0.75;0.47;;;30.50;31.70;;;;;;5099392;28;20039;-48
2022/05/20 02:23:56;;;;;;;0.32;0.32;;;30.50;31.80;;;;;;5103038;28;20077;-55
2022/05/20 02:26:26;;;;;;;2.92;0.10;;;30.40;31.60;;;;;;5105970;28;20108;-56
2022/05/20 02:28:59;;;;;;;1.10;0.20;;;30.40;31.80;;;;;;5104925;28;20044;-53
2022/05/20 02:31:31;;;;;;;0.80;0.10;;;30.40;31.80;;;;;;5105647;28;20035;-55
2022/05/20 02:33:59;;;;;;;0.65;0.20;;;30.40;31.80;;;;;;5105234;28;20039;-48
2022/05/20 02:36:31;;;;;;;0.30;0.10;;;30.40;31.90;;;;;;5105519;28;20035;-50
2022/05/20 02:39:00;;;;;;;2.05;0.47;;;30.40;31.90;;;;;;5104962;28;20051;-51
2022/05/20 02:41:27;;;;;;;0.57;0.10;;;30.40;31.90;;;;;;5106929;28;20135;-55
2022/05/20 02:43:54;;;;;;;1.60;0.20;;;30.40;32.00;;;;;;5104989;28;20039;-54
2022/05/20 02:46:21;;;;;;;1.20;0.10;;;30.40;32.00;;;;;;5103672;28;20047;-51
2022/05/20 02:48:48;;;;;;;2.30;0.20;;;30.40;32.10;;;;;;5104381;28;20066;-50
2022/05/20 02:51:17;;;;;;;2.67;0.10;;;30.40;32.20;;;;;;5105079;28;20039;-52
2022/05/20 02:53:45;;;;;;;1.70;0.10;;;30.40;32.10;;;;;;5113364;27;20062;-54
2022/05/20 02:56:13;;;;;;;1.45;0.05;;;30.40;32.10;;;;;;5126199;27;20043;-51
2022/05/20 03:04:12;;;;;;;4.22;0.32;;;30.30;32.20;;;;;;5120351;27;20035;-53
2022/05/20 03:06:42;;;;;;;0.25;0.10;;;30.30;32.20;;;;;;5125855;27;20506;-52
2022/05/20 03:09:11;;;;;;;0.30;0.10;;;30.40;32.30;;;;;;5125481;27;20087;-53
2022/05/20 03:11:40;;;;;;;2.08;0.10;;;30.40;32.40;;;;;;5127225;27;20136;-53
2022/05/20 03:14:09;;;;;;;0.57;0.10;;;30.40;32.50;;;;;;5124061;27;20531;-52
2022/05/20 03:16:37;;;;;;;0.38;0.00;;;30.40;32.70;;;;;;5126398;27;20049;-52
2022/05/20 03:19:05;;;;;;;1.83;0.10;;;30.30;32.40;;;;;;5123084;27;20032;-51
2022/05/20 03:21:33;;;;;;;0.73;0.10;;;30.30;32.30;;;;;;5107019;27;20058;-54
2022/05/20 03:24:01;;;;;;;0.60;0.25;;;30.40;32.50;;;;;;5125819;27;20122;-54
2022/05/20 03:26:29;;;;;;;2.40;0.20;;;30.40;32.50;;;;;;5124971;27;20426;-55
2022/05/20 03:28:59;;;;;;;4.47;0.63;;;30.40;32.50;;;;;;5124851;27;20042;-55
2022/05/20 03:31:26;;;;;;;3.83;0.10;;;30.40;32.50;;;;;;5125130;27;20034;-54
2022/05/20 03:33:53;;;;;;;0.93;0.10;;;30.40;32.60;;;;;;5124656;27;20035;-50
2022/05/20 03:36:21;;;;;;;2.10;0.25;;;30.40;32.50;;;;;;5125482;27;20110;-53
2022/05/20 03:38:48;;;;;;;0.35;0.10;;;30.40;32.30;;;;;;5126054;27;20427;-52
2022/05/20 03:41:15;;;;;;;0.63;0.00;;;30.40;32.40;;;;;;5126216;27;20042;-53
2022/05/20 03:43:42;;;;;;;1.10;0.20;;;30.30;32.20;;;;;;5125126;27;20520;-50
2022/05/20 03:46:11;;;;;;;0.40;0.10;;;30.40;32.30;;;;;;5124837;27;20039;-53
2022/05/20 03:48:38;;;;;;;0.52;0.13;;;30.40;32.30;;;;;;5122017;27;20046;-53
2022/05/20 03:51:09;;;;;;;0.70;0.10;;;30.30;32.20;;;;;;5124506;27;20088;-49
2022/05/20 03:53:36;;;;;;;3.28;0.77;;;30.30;32.30;;;;;;5123591;27;20051;-50
2022/05/20 03:56:03;;;;;;;0.70;0.20;;;30.30;32.30;;;;;;5114200;27;20404;-49
2022/05/20 03:58:30;;;;;;;1.17;0.22;;;30.30;33.00;;;;;;5112648;27;20105;-52
2022/05/20 04:03:45;;;;;;;1.08;0.10;;;30.30;32.50;;;;;;5104072;27;20051;-50
2022/05/20 04:06:13;;;;;;;0.85;0.17;;;30.30;32.60;;;;;;5101824;28;20055;-53
2022/05/20 04:08:40;;;;;;;0.90;0.03;;;30.20;32.50;;;;;;5106156;27;20048;-54
2022/05/20 04:11:11;;;;;;;1.70;0.15;;;30.20;32.50;;;;;;5113190;27;20031;-53
2022/05/20 04:13:39;;;;;;;2.10;0.20;;;30.20;32.60;;;;;;5111239;27;20043;-54
2022/05/20 04:16:06;;;;;;;1.13;0.20;;;30.10;32.60;;;;;;5115215;27;20066;-50
2022/05/20 04:18:33;;;;;;;0.20;0.10;;;30.10;32.70;;;;;;5105388;27;20554;-52
2022/05/20 04:21:02;;;;;;;2.90;0.10;;;30.10;32.80;;;;;;5104328;27;20035;-52
2022/05/20 04:23:29;;;;;;;0.45;0.20;;;30.10;32.80;;;;;;5113683;27;20071;-50
2022/05/20 04:25:56;;;;;;;0.90;0.17;;;30.10;32.90;;;;;;5108152;27;20044;-51
2022/05/20 04:28:23;;;;;;;2.20;0.10;;;30.10;33.10;;;;;;5107634;27;20412;-52
2022/05/20 04:30:52;;;;;;;1.02;0.50;;;30.10;33.10;;;;;;5107888;27;20062;-55
2022/05/20 04:33:19;;;;;;;1.88;0.50;;;30.10;33.10;;;;;;5104124;27;20040;-50
2022/05/20 04:35:46;;;;;;;1.95;0.20;;;30.10;33.10;;;;;;5108423;27;20408;-52
2022/05/20 04:38:15;;;;;;;2.15;0.40;;;30.10;33.10;;;;;;5115225;27;20069;-49
2022/05/20 04:40:42;;;;;;;0.65;0.40;;;30.10;33.20;;;;;;5111675;27;20038;-51
2022/05/20 04:48:39;;;;;;;2.73;0.40;;;30.00;33.40;;;;;;5101641;28;20528;-51
2022/05/20 04:51:06;;;;;;;1.20;0.30;;;30.00;33.40;;;;;;5111166;27;20032;-51
2022/05/20 04:56:20;;;;;;;4.43;0.65;;;30.00;33.60;;;;;;5115843;27;20043;-54
2022/05/20 04:58:47;;;;;;;2.53;0.20;;;29.90;33.70;;;;;;5109690;27;20039;-48
2022/05/20 05:01:15;;;;;;;1.73;0.20;;;29.90;33.80;;;;;;5113553;27;20112;-55
2022/05/20 05:03:42;;;;;;;3.13;0.10;;;30.00;33.90;;;;;;5103394;27;20066;-53
2022/05/20 05:06:09;;;;;;;5.32;0.40;;;29.90;33.90;;;;;;5119271;27;20047;-53
2022/05/20 05:08:37;;;;;;;2.78;0.82;;;29.90;33.90;;;;;;5115388;27;20119;-51
2022/05/20 05:11:05;;;;;;;1.58;0.20;;;29.90;34.00;;;;;;5108069;27;20113;-53
2022/05/20 05:13:32;;;;;;;0.95;0.30;;;29.90;34.10;;;;;;5109066;27;20535;-52
2022/05/20 05:15:59;;;;;;;2.88;0.20;;;29.90;34.10;;;;;;5111888;27;20086;-53
2022/05/20 05:18:27;;;;;;;1.38;0.10;;;29.90;34.20;;;;;;5103583;28;20088;-50
2022/05/20 05:20:54;;;;;;;1.35;0.20;;;29.80;34.10;;;;;;5111705;27;20062;-52
2022/05/20 05:23:22;;;;;;;3.00;0.25;;;29.80;34.20;;;;;;5098581;28;20055;-54
2022/05/20 05:25:51;;;;;;;2.30;0.13;;;29.90;34.40;;;;;;5109282;28;20039;-52
2022/05/20 05:28:18;;;;;;;2.80;0.68;;;29.80;34.40;;;;;;5111628;28;20496;-51
2022/05/20 05:30:47;;;;;;;1.40;0.10;;;29.80;34.50;;;;;;5106126;28;20039;-54
2022/05/20 05:33:14;;;;;;;0.40;0.15;;;29.80;34.60;;;;;;5116261;28;20811;-54
2022/05/20 05:35:42;;;;;;;2.85;0.25;;;29.80;34.70;;;;;;5108867;28;20051;-52
2022/05/20 05:38:09;;;;;;;5.75;0.20;;;29.90;34.80;;;;;;5113098;28;20109;-51
2022/05/20 05:40:37;;;;;;;1.35;0.73;;;29.90;35.00;;;;;;5115210;28;20039;-52
2022/05/20 05:43:06;;;;;;;0.50;0.25;;;29.90;35.60;;;;;;5116034;28;20039;-50
2022/05/20 05:45:35;;;;;;;4.22;0.43;;;29.90;35.20;;;;;;5102887;28;20044;-53
2022/05/20 05:48:04;;;;;;;1.88;0.20;;;29.90;35.30;;;;;;5116477;28;20048;-51
2022/05/20 05:50:33;;;;;;;7.13;0.50;;;30.00;35.50;;;;;;5109190;28;20050;-52
2022/05/20 05:53:06;;;;;;;1.85;0.30;;;30.00;35.60;;;;;;5106116;28;20052;-50
2022/05/20 05:55:34;;;;;;;1.45;0.32;;;30.00;35.60;;;;;;5122631;28;20043;-49
2022/05/20 05:58:01;;;;;;;1.85;0.50;;;29.90;35.90;;;;;;5121549;27;20043;-51
2022/05/20 06:00:29;;;;;;;1.75;0.25;;;30.00;36.00;;;;;;5108596;28;20407;-52
2022/05/20 06:02:56;;;;;;;2.72;0.28;;;30.00;36.00;;;;;;5120548;28;20051;-52
2022/05/20 06:05:25;;;;;;;1.88;0.40;;;29.90;36.20;;;;;;5124597;28;20494;-54
2022/05/20 06:07:52;;;;;;;4.00;1.05;;;29.90;36.60;;;;;;5120179;27;20122;-54
2022/05/20 06:10:20;;;;;;;0.68;0.20;;;29.80;36.80;;;;;;5105509;28;20047;-54
2022/05/20 06:12:48;;;;;;;2.58;0.63;;;29.80;37.20;;;;;;5119061;27;20076;-54
2022/05/20 06:15:18;;;;;;;1.08;0.25;;;29.70;37.60;;;;;;5123279;28;20096;-52
2022/05/20 06:17:46;;;;;;;1.77;0.65;;;29.70;38.30;;;;;;5124872;28;20561;-52
2022/05/20 06:20:13;;;;;;;3.85;0.20;;;29.60;38.70;;;;;;5121681;28;20058;-50
2022/05/20 06:22:41;;;;;;;4.43;0.20;;;29.60;39.20;;;;;;5121707;28;20054;-56
2022/05/20 06:25:09;;;;;;;0.95;0.28;;;29.60;39.20;;;;;;5121288;28;20523;-53
2022/05/20 06:27:36;;;;;;;5.82;0.82;;;29.60;39.60;;;;;;5122099;28;20051;-53
2022/05/20 06:30:05;;;;;;;2.45;0.60;;;29.50;39.70;;;;;;5122446;28;20046;-53
2022/05/20 06:32:32;;;;;;;4.25;0.40;;;29.50;39.80;;;;;;5125416;27;20897;-56
2022/05/20 06:40:35;;;;;;;2.80;0.30;;;29.40;40.40;;;;;;5126401;27;20542;-52
2022/05/20 06:43:04;;;;;;;0.98;0.20;;;29.40;40.00;;;;;;5126071;27;20418;-50
2022/05/20 06:45:32;;;;;;;1.55;0.65;;;29.30;39.80;;;;;;5125288;27;20039;-50
2022/05/20 06:48:00;;;;;;;1.52;0.47;;;29.20;39.80;;;;;;5125988;27;20407;-53
2022/05/20 06:50:28;;;;;;;4.03;0.20;;;29.20;40.60;;;;;;5125669;27;20070;-54
2022/05/20 06:52:56;;;;;;;4.22;0.22;;;29.10;40.20;;;;;;5125311;27;20047;-52
2022/05/20 06:55:23;;;;;;;4.03;0.45;;;29.10;40.70;;;;;;5114558;27;20035;-52
2022/05/20 06:57:52;;;;;;;2.03;0.52;;;29.10;41.10;;;;;;5109637;27;20152;-52
2022/05/20 07:00:20;;;;;;;6.25;0.45;;;29.10;41.40;;;;;;5105525;27;20062;-51
2022/05/20 07:02:47;;;;;;;5.90;1.02;;;29.10;41.50;;;;;;5118030;27;20571;-53
2022/05/20 07:05:15;;;;;;;3.15;0.70;;;29.10;41.60;;;;;;5117221;27;20043;-55
2022/05/20 07:07:43;;;;;;;5.72;0.40;;;29.10;41.80;;;;;;5109715;27;20166;-55
2022/05/20 07:10:13;;;;;;;4.90;0.20;;;29.10;41.90;;;;;;5107563;27;20150;-51
2022/05/20 07:12:40;;;;;;;6.68;1.75;;;29.10;42.00;;;;;;5115174;27;20052;-53
2022/05/20 07:15:09;;;;;;;4.13;0.75;;;29.00;41.90;;;;;;5120812;27;20067;-54
2022/05/20 07:17:36;;;;;;;3.53;0.50;;;29.00;42.20;;;;;;5111387;27;20126;-53
2022/05/20 07:20:04;;;;;;;3.13;0.30;;;29.00;42.30;;;;;;5108598;27;20127;-53
2022/05/20 07:22:32;;;;;;;2.42;0.30;;;29.00;42.10;;;;;;5116259;27;20066;-53
2022/05/20 07:25:00;;;;;;;1.27;0.40;;;29.00;42.20;;;;;;5116999;27;20047;-49
2022/05/20 07:27:29;;;;;;;2.78;0.70;;;29.00;42.40;;;;;;5106038;27;20047;-52
2022/05/20 07:29:56;;;;;;;2.10;0.63;;;29.10;42.40;;;;;;5123779;27;20046;-52
2022/05/20 07:32:23;;;;;;;2.38;0.40;;;29.00;42.50;;;;;;5090975;28;20055;-50
2022/05/20 07:34:51;;;;;;;4.60;0.45;;;29.00;42.80;;;;;;5109268;27;20071;-51
2022/05/20 07:37:18;;;;;;;2.45;0.55;;;29.00;42.80;;;;;;5105017;28;20132;-55
2022/05/20 07:39:45;;;;;;;3.95;0.40;;;29.00;42.90;;;;;;5107920;27;20035;-53
2022/05/20 07:42:14;;;;;;;1.55;0.40;;;29.00;42.90;;;;;;5105361;27;20040;-55
2022/05/20 07:44:41;;;;;;;2.05;0.30;;;29.00;43.00;;;;;;5110671;27;20046;-53
2022/05/20 07:47:09;;;;;;;1.92;0.60;;;29.00;43.20;;;;;;5114864;27;20111;-53
2022/05/20 07:49:36;;;;;;;4.80;0.25;;;29.00;43.20;;;;;;5095255;27;20043;-54
2022/05/20 07:52:06;;;;;;;2.25;0.88;;;29.00;43.80;;;;;;5086454;27;20042;-54
2022/05/20 07:54:40;;;;;;;7.22;0.60;;;29.00;43.50;;;;;;5115324;27;20051;-59
2022/05/20 07:57:14;;;;;;;2.88;0.10;;;28.80;44.20;;;;;;5120408;27;20451;-60
2022/05/20 07:59:46;;;;;;;4.68;0.70;;;28.80;44.50;;;;;;5110359;27;20070;-57
2022/05/20 08:02:16;;;;;;;5.00;1.60;;;28.70;44.90;;;;;;5110849;27;20035;-55
2022/05/20 08:04:55;;;;;;;4.72;0.60;;;28.70;45.70;;;;;;5114979;27;20035;-56
2022/05/20 08:07:27;;;;;;;3.97;1.10;;;28.70;45.80;;;;;;5111768;27;20043;-59
2022/05/20 08:09:55;;;;;;;2.45;0.55;;;28.70;46.50;;;;;;5118882;27;20088;-60
2022/05/20 08:12:23;;;;;;;6.70;0.98;;;28.80;46.90;;;;;;5104863;28;20043;-61
2022/05/20 08:14:51;;;;;;;9.73;0.88;;;28.80;46.80;;;;;;5120888;27;20043;-57
2022/05/20 08:17:21;;;;;;;5.40;1.08;;;28.80;47.00;;;;;;5109840;27;20044;-56
2022/05/20 08:19:51;;;;;;;4.05;0.90;;;28.90;47.00;;;;;;5105028;27;20158;-59
2022/05/20 08:22:22;;;;;;;3.03;0.70;;;28.90;46.80;;;;;;5115346;27;20226;-47
2022/05/20 08:24:52;;;;;;;1.60;0.40;;;28.90;46.00;;;;;;5119013;27;20039;-52
2022/05/20 08:27:20;;;;;;;3.92;0.70;;;28.90;46.20;;;;;;5100209;27;20567;-61
2022/05/20 08:29:50;;;;;;;3.35;0.57;;;28.90;46.60;;;;;;5095459;28;20043;-60
2022/05/20 08:32:17;;;;;;;3.60;1.20;;;28.90;45.90;;;;;;5116852;27;20054;-61
2022/05/20 08:34:46;;;;;;;1.15;0.80;;;29.00;46.10;;;;;;5107880;27;20075;-58
2022/05/20 08:37:15;;;;;;;4.70;0.70;;;29.00;46.40;;;;;;5106084;27;20043;-58
2022/05/20 08:39:44;;;;;;;2.38;0.57;;;29.00;46.20;;;;;;5118635;27;20043;-61
2022/05/20 08:42:14;;;;;;;3.72;0.70;;;29.00;46.10;;;;;;5104613;27;21183;-65
2022/05/20 08:44:44;;;;;;;5.15;2.15;;;29.00;46.10;;;;;;5112963;27;20039;-66
2022/05/20 08:47:22;;;;;;;7.65;1.75;;;28.90;46.60;;;;;;5108607;27;20134;-64
2022/05/20 08:49:51;;;;;;;3.65;0.47;;;28.90;46.50;;;;;;5106423;27;20054;-58
2022/05/20 08:52:19;;;;;;;6.57;2.15;;;29.00;46.60;;;;;;5099214;28;20063;-58
2022/05/20 08:54:47;;;;;;;5.20;1.27;;;28.90;47.40;;;;;;5113848;27;20105;-58
2022/05/20 08:57:19;;;;;;;5.68;1.15;;;29.00;47.80;;;;;;5114537;27;20409;-56
2022/05/20 08:59:47;;;;;;;8.80;2.00;;;29.00;47.80;;;;;;5080937;28;20554;-52
2022/05/20 09:02:15;;;;;;;6.10;1.45;;;29.00;47.90;;;;;;5100593;28;20063;-51
2022/05/20 09:04:42;;;;;;;4.97;1.20;;;29.00;48.10;;;;;;5110040;27;20047;-53
2022/05/20 09:07:12;;;;;;;1.65;0.70;;;29.10;48.50;;;;;;5104272;27;20047;-56
2022/05/20 09:09:47;;;;;;;4.40;1.08;;;29.10;48.50;;;;;;5109351;27;20147;-55
2022/05/20 09:12:31;;;;;;;3.90;0.87;;;29.20;48.50;;;;;;5101088;28;20039;-62
2022/05/20 09:17:51;;;;;;;0.70;0.40;;;29.30;48.70;;;;;;5101266;28;20041;-59
2022/05/20 09:20:20;;;;;;;7.70;1.58;;;29.30;48.30;;;;;;5086279;28;20158;-56
2022/05/20 09:22:59;;;;;;;3.03;0.80;;;29.30;48.20;;;;;;5112314;28;20043;-61
2022/05/20 09:25:29;;;;;;;8.38;1.77;;;29.50;48.70;;;;;;5113892;28;20134;-60
2022/05/20 09:28:15;;;;;;;3.15;0.98;;;29.40;48.80;;;;;;5110141;28;20761;-60
2022/05/20 09:30:49;;;;;;;3.95;1.20;;;29.50;48.80;;;;;;5104935;28;20088;-55
2022/05/20 09:33:22;;;;;;;6.05;2.38;;;29.50;49.40;;;;;;5103292;28;20042;-57
2022/05/20 09:35:58;;;;;;;11.25;1.27;;;29.50;49.20;;;;;;5116602;28;20050;-52
2022/05/20 09:38:39;;;;;;;7.63;1.05;;;29.70;48.40;;;;;;5118311;28;20054;-59
2022/05/20 09:41:12;;;;;;;7.68;1.35;;;29.80;47.90;;;;;;5109479;28;20047;-61
2022/05/20 09:43:42;;;;;;;7.50;1.77;;;29.90;47.60;;;;;;5112325;28;20070;-59
2022/05/20 09:46:28;;;;;;;4.25;1.38;;;30.10;47.10;;;;;;5116005;28;20544;-54
2022/05/20 09:49:05;;;;;;;4.10;1.52;;;30.20;46.90;;;;;;5109480;28;20062;-53
2022/05/20 09:51:38;;;;;;;6.05;1.15;;;30.30;47.30;;;;;;5089884;28;20602;-52
2022/05/20 09:54:17;;;;;;;11.55;2.78;;;30.40;47.40;;;;;;5120530;28;20040;-57
2022/05/20 09:56:47;;;;;;;6.03;1.48;;;30.50;47.30;;;;;;5130363;28;20069;-60
2022/05/20 09:59:32;;;;;;;12.93;2.15;;;30.50;47.20;;;;;;5132543;28;20051;-56
2022/05/20 10:02:04;;;;;;;7.10;1.37;;;30.70;47.20;;;;;;5131098;28;20047;-58
2022/05/20 10:04:47;;;;;;;6.05;1.60;;;30.70;47.20;;;;;;5132029;28;20047;-53
2022/05/20 10:07:24;;;;;;;9.85;2.55;;;30.80;47.00;;;;;;5124436;27;20526;-57
2022/05/20 10:09:57;;;;;;;4.47;1.75;;;30.80;46.80;;;;;;5122429;27;20111;-48
2022/05/20 10:12:29;;;;;;;5.15;1.70;;;30.90;46.90;;;;;;5125792;27;20679;-52
2022/05/20 10:15:03;;;;;;;3.42;1.25;;;31.00;46.90;;;;;;5129258;27;20650;-54
2022/05/20 10:17:42;;;;;;;9.50;1.92;;;31.10;46.40;;;;;;5124626;27;20047;-59
2022/05/20 10:20:26;;;;;;;4.03;1.65;;;31.20;46.00;;;;;;5129057;27;20055;-58
2022/05/20 10:23:06;;;;;;;6.57;1.98;;;31.20;45.70;;;;;;5126289;27;20062;-58
2022/05/20 10:25:39;;;;;;;4.40;1.75;;;31.20;45.40;;;;;;5125826;27;20087;-53
2022/05/20 10:32:34;;;;;;;5.95;2.38;;;31.20;45.40;;;;;;5122619;27;20052;-53
2022/05/20 10:33:54;;;;;;;4.50;1.65;;;31.30;45.50;;;;;;5124260;27;20091;-63
2022/05/20 10:36:31;;;;;;;4.15;2.10;;;31.30;45.60;;;;;;5128536;27;20042;-59
2022/05/20 10:39:06;;;;;;;6.75;2.80;;;31.30;45.70;;;;;;5129861;27;20050;-54
2022/05/20 10:41:49;;;;;;;6.15;1.83;;;31.40;46.10;;;;;;5128853;27;20088;-44
2022/05/20 10:50:23;;;;;;;6.85;2.00;;;31.40;45.50;;;;;;5127006;27;20047;-54
2022/05/20 10:53:12;;;;;;;10.10;2.42;;;31.40;45.40;;;;;;5127783;27;20039;-60
2022/05/20 10:55:56;;;;;;;2.83;1.55;;;31.40;45.60;;;;;;5110623;27;20044;-60
2022/05/20 10:59:02;;;;;;;7.03;2.65;;;31.40;46.00;;;;;;5114484;27;20036;-47
2022/05/20 11:01:39;;;;;;;3.28;1.98;;;31.50;46.40;;;;;;5100455;27;20043;-44
2022/05/20 11:04:29;;;;;;;5.18;2.03;;;31.40;47.10;;;;;;5105144;27;20561;-53
2022/05/20 11:07:38;;;;;;;7.13;2.47;;;31.50;47.10;;;;;;5110165;27;20040;-55
2022/05/20 11:10:27;;;;;;;3.65;2.40;;;31.60;47.50;;;;;;5114694;27;20039;-50
2022/05/20 11:13:04;;;;;;;6.75;2.67;;;31.60;47.50;;;;;;5119449;27;20040;-50
2022/05/20 11:15:49;;;;;;;8.90;2.40;;;31.60;47.60;;;;;;5115838;27;20039;-47
2022/05/20 11:18:46;;;;;;;4.75;1.35;;;31.60;48.00;;;;;;5108300;28;20057;-47
2022/05/20 11:21:47;;;;;;;7.35;2.05;;;31.60;48.00;;;;;;5095612;28;20043;-46
2022/05/20 11:24:39;;;;;;;10.40;2.80;;;31.60;47.90;;;;;;5007086;28;20041;-50
2022/05/20 11:27:29;;;;;;;6.93;1.85;;;31.70;48.10;;;;;;5016040;28;20709;-51
2022/05/20 11:30:11;;;;;;;4.03;1.77;;;31.70;48.00;;;;;;5014759;28;20511;-47
2022/05/20 11:33:11;;;;;;;3.42;1.38;;;31.70;48.10;;;;;;5011742;28;20096;-51
2022/05/20 11:36:02;;;;;;;2.72;1.40;;;31.80;48.00;;;;;;5016553;28;20381;-51
2022/05/20 11:38:50;;;;;;;4.85;1.77;;;31.80;48.20;;;;;;5019344;28;20120;-49
2022/05/20 11:41:28;;;;;;;2.25;0.80;;;31.80;48.20;;;;;;5021045;28;20056;-56
2022/05/20 11:44:23;;;;;;;12.85;1.20;;;31.80;48.40;;;;;;5012357;28;20766;-44
2022/05/20 11:47:11;;;;;;;1.95;1.05;;;31.90;47.90;;;;;;5017536;28;20538;-45
2022/05/20 11:49:51;;;;;;;4.82;0.90;;;31.90;47.50;;;;;;5013740;28;20149;-45
2022/05/20 11:52:49;;;;;;;3.38;0.98;;;31.90;47.10;;;;;;5011550;28;20069;-48
2022/05/20 11:55:20;;;;;;;3.60;0.45;;;32.00;46.40;;;;;;5012222;28;20045;-46
2022/05/20 11:57:51;;;;;;;2.50;0.90;;;32.00;46.10;;;;;;5016422;28;20045;-47
2022/05/20 12:00:21;;;;;;;2.30;0.75;;;32.00;45.70;;;;;;5036142;28;20055;-47
2022/05/20 12:02:52;;;;;;;4.47;1.10;;;32.00;45.30;;;;;;5108938;28;20163;-48
2022/05/20 12:05:24;;;;;;;3.20;0.52;;;31.90;45.00;;;;;;5105381;27;20040;-46
2022/05/20 12:07:52;;;;;;;4.88;0.80;;;31.80;44.60;;;;;;5082650;28;20032;-45
2022/05/20 12:10:46;;;;;;;3.15;1.05;;;31.60;44.40;;;;;;5103916;27;20050;-47
2022/05/20 12:13:19;;;;;;;5.25;0.70;;;31.50;44.00;;;;;;5106146;27;20507;-47
2022/05/20 12:15:50;;;;;;;4.75;0.82;;;31.40;43.70;;;;;;5103714;27;20031;-50
2022/05/20 12:24:29;;;;;;;4.00;0.75;;;31.00;43.80;;;;;;5105469;27;20051;-45
2022/05/20 12:26:57;;;;;;;8.48;0.93;;;30.90;44.10;;;;;;5104550;27;20688;-47
2022/05/20 12:29:45;;;;;;;4.03;1.10;;;30.80;44.20;;;;;;5104159;27;20050;-47
2022/05/20 12:32:49;;;;;;;4.25;0.80;;;30.80;44.30;;;;;;5108664;27;20093;-64
2022/05/20 12:35:21;;;;;;;5.30;0.60;;;30.70;44.50;;;;;;5108545;27;20043;-60
2022/05/20 12:38:08;;;;;;;2.08;0.55;;;30.60;44.90;;;;;;5108320;27;20127;-53
2022/05/20 12:41:00;;;;;;;3.25;0.65;;;30.40;45.00;;;;;;5108652;27;20691;-62
2022/05/20 12:43:55;;;;;;;3.70;0.60;;;30.30;45.50;;;;;;5105921;27;20047;-61
2022/05/20 12:46:46;;;;;;;1.90;0.85;;;30.10;45.80;;;;;;5103612;27;20130;-67
2022/05/20 12:49:15;;;;;;;10.70;0.90;;;29.80;46.00;;;;;;5098491;27;20584;-61
2022/05/20 12:51:46;;;;;;;5.30;0.73;;;29.70;46.60;;;;;;5102766;27;20066;-64
2022/05/20 12:54:19;;;;;;;6.82;0.93;;;29.50;46.90;;;;;;5113335;27;20062;-60
2022/05/20 12:56:48;;;;;;;5.72;0.80;;;29.40;47.30;;;;;;5118068;27;20046;-62
2022/05/20 12:59:18;;;;;;;2.85;1.35;;;29.40;47.90;;;;;;5119934;27;20067;-64
2022/05/20 13:01:53;;;;;;;5.22;0.73;;;29.30;48.60;;;;;;5117119;27;20461;-59
2022/05/20 13:04:23;;;;;;;3.92;0.68;;;29.20;48.70;;;;;;5116919;27;20038;-53
2022/05/20 13:06:52;;;;;;;0.98;0.50;;;29.10;49.10;;;;;;5120332;27;20031;-59
2022/05/20 13:09:26;;;;;;;2.22;1.05;;;29.00;49.20;;;;;;5117450;27;20050;-61
2022/05/20 13:12:03;;;;;;;3.38;0.70;;;29.00;49.20;;;;;;5118166;27;20045;-49
2022/05/20 13:14:30;;;;;;;;;;;28.80;49.40;;;;;;5110030;27;20389;-67
2022/05/20 13:17:02;;;;;;;2.60;0.70;;;28.70;49.20;;;;;;5121536;27;20456;-60
2022/05/20 13:19:39;;;;;;;1.13;0.55;;;28.60;49.80;;;;;;5120866;27;20039;-60
2022/05/20 13:22:08;;;;;;;3.53;0.90;;;28.50;49.90;;;;;;5117312;28;20452;-58
2022/05/20 13:24:38;;;;;;;1.95;0.30;;;28.50;50.00;;;;;;5121251;28;20074;-58
2022/05/20 13:27:12;;;;;;;0.40;0.40;;;28.40;50.20;;;;;;5119678;28;20036;-56
2022/05/20 13:29:40;;;;;;;0.25;0.10;;;28.30;50.10;;;;;;5127945;28;20047;-56
2022/05/20 13:32:16;;;;;;;3.35;0.50;;;28.20;50.00;;;;;;5122057;27;20070;-55
2022/05/20 13:34:48;;;;;;;4.35;0.20;;;28.20;50.10;;;;;;5125758;28;20050;-58
2022/05/20 13:37:20;;;;;;;2.92;0.28;;;28.10;50.10;;;;;;5123366;28;20042;-57
2022/05/20 13:39:48;;;;;;;0.63;0.28;;;28.00;50.00;;;;;;5125097;28;20138;-54
2022/05/20 13:42:17;;;;;;;1.48;0.10;;;28.00;50.10;;;;;;5128167;27;20035;-56
2022/05/20 13:44:46;;;;;;;0.98;0.17;;;27.90;50.20;;;;;;5127989;27;20439;-57
2022/05/20 13:50:03;;;;;;;0.30;0.20;;;27.90;50.60;;;;;;5128797;27;20167;-57
2022/05/20 13:52:35;;;;;;;0.30;0.30;;;27.90;50.70;;;;;;5119369;27;20036;-57
2022/05/20 13:55:07;;;;;;;2.78;0.20;;;27.90;50.80;;;;;;5119030;27;20416;-58